Time;durP1;ratioP1;P1;durP2;ratioP2;P2;SDS_P1;SDS_P2;PMS_P1;PMS_P2;Temp;Humidity;BMP_temperature;BMP_pressure;BME280_temperature;BME280_humidity;BME280_pressure;Samples;Min_cycle;Max_cycle;Signal;HPM_P1;HPM_P2
2023/03/24 00:01:40;;;;;;;6.30;4.57;;;;;;;11.04;100.00;99600.63;10380364;28;20354;-75
2023/03/24 00:06:42;;;;;;;5.45;4.95;;;;;;;11.02;100.00;99592.75;10384554;28;20070;-74
2023/03/24 00:11:43;;;;;;;10.32;5.47;;;;;;;11.10;100.00;99575.34;10380979;28;20625;-76
2023/03/24 00:16:44;;;;;;;20.70;5.00;;;;;;;11.10;100.00;99573.47;10380831;28;20132;-75
2023/03/24 00:21:44;;;;;;;6.85;4.47;;;;;;;11.16;100.00;99561.66;10380073;28;20042;-76
2023/03/24 00:26:45;;;;;;;9.50;5.43;;;;;;;11.24;100.00;99565.94;10395149;28;20096;-75
2023/03/24 00:31:46;;;;;;;6.53;4.55;;;;;;;11.29;100.00;99557.09;10380165;28;20490;-75
2023/03/24 00:36:50;;;;;;;7.38;4.28;;;;;;;11.33;100.00;99555.59;10400778;28;20034;-74
2023/03/24 00:41:51;;;;;;;8.77;4.78;;;;;;;11.37;100.00;99540.50;10403627;28;20034;-75
2023/03/24 00:46:54;;;;;;;10.80;4.45;;;;;;;11.34;100.00;99535.53;10391524;28;20037;-72
2023/03/24 00:51:57;;;;;;;4.30;3.28;;;;;;;11.38;100.00;99532.09;10400007;28;20033;-73
2023/03/24 00:56:57;;;;;;;7.65;4.78;;;;;;;11.45;100.00;99514.91;10378887;28;20481;-73
2023/03/24 01:01:57;;;;;;;5.03;3.17;;;;;;;11.48;100.00;99512.53;10378115;28;20073;-73
2023/03/24 01:06:58;;;;;;;5.07;4.15;;;;;;;11.47;100.00;99515.50;10377613;28;20107;-72
2023/03/24 01:11:58;;;;;;;6.60;4.47;;;;;;;11.38;100.00;99510.44;10377817;28;20030;-73
2023/03/24 01:16:59;;;;;;;9.25;3.53;;;;;;;11.56;100.00;99500.53;10377585;28;20469;-73
2023/03/24 01:22:01;;;;;;;7.38;4.50;;;;;;;11.56;100.00;99514.06;10375780;28;20552;-73
2023/03/24 01:27:01;;;;;;;5.32;4.03;;;;;;;11.54;100.00;99536.00;10377884;28;20439;-72
2023/03/24 01:32:02;;;;;;;10.05;3.88;;;;;;;11.55;100.00;99569.34;10375996;28;20037;-72
2023/03/24 01:37:02;;;;;;;4.10;3.60;;;;;;;11.52;100.00;99577.94;10375026;28;20493;-73
2023/03/24 01:42:03;;;;;;;6.82;3.20;;;;;;;11.37;100.00;99595.50;10380341;28;20049;-73
2023/03/24 01:47:07;;;;;;;10.77;4.70;;;;;;;11.11;100.00;99612.22;10379499;28;20057;-73
2023/03/24 01:52:15;;;;;;;11.20;3.20;;;;;;;10.92;100.00;99631.25;10403062;28;20413;-73
2023/03/24 01:57:25;;;;;;;11.02;3.72;;;;;;;10.71;100.00;99646.13;10388532;28;20025;-74
2023/03/24 02:02:26;;;;;;;6.90;4.20;;;;;;;10.59;100.00;99645.25;10390774;28;20037;-74
2023/03/24 02:07:35;;;;;;;19.10;4.25;;;;;;;10.43;100.00;99667.50;10377523;28;20036;-76
2023/03/24 02:12:36;;;;;;;12.77;4.40;;;;;;;10.34;100.00;99667.00;10375889;28;20083;-75
2023/03/24 02:18:06;;;;;;;22.67;4.85;;;;;;;10.26;100.00;99683.53;10374188;28;20179;-75
2023/03/24 02:23:16;;;;;;;13.05;3.03;;;;;;;10.15;100.00;99689.69;10374847;28;20038;-75
2023/03/24 02:28:16;;;;;;;18.45;5.38;;;;;;;10.02;100.00;99690.63;10374714;28;20211;-74
2023/03/24 02:33:44;;;;;;;8.17;2.87;;;;;;;9.85;100.00;99693.06;10374495;28;20182;-75
2023/03/24 02:39:15;;;;;;;20.17;4.20;;;;;;;9.70;100.00;99714.19;10375165;28;20723;-74
2023/03/24 02:44:19;;;;;;;10.90;3.90;;;;;;;9.59;100.00;99725.75;10367786;28;20188;-75
2023/03/24 02:49:29;;;;;;;6.13;3.72;;;;;;;9.37;100.00;99720.69;10375236;28;20060;-75
2023/03/24 02:54:29;;;;;;;10.85;3.10;;;;;;;9.31;100.00;99743.19;10375284;28;20022;-74
2023/03/24 02:59:55;;;;;;;18.93;4.33;;;;;;;9.33;100.00;99741.09;10381902;28;20506;-74
2023/03/24 03:04:59;;;;;;;11.32;4.47;;;;;;;9.21;100.00;99750.94;10375763;28;20333;-74
2023/03/24 03:10:13;;;;;;;18.08;5.18;;;;;;;9.05;100.00;99760.38;10380689;28;20072;-75
2023/03/24 03:15:25;;;;;;;13.40;3.92;;;;;;;9.12;100.00;99755.75;10404332;28;20087;-75
2023/03/24 03:20:25;;;;;;;7.70;3.08;;;;;;;9.20;100.00;99768.19;10405189;28;20517;-76
2023/03/24 03:25:28;;;;;;;10.48;3.17;;;;;;;9.26;100.00;99764.63;10397903;28;20113;-73
2023/03/24 03:30:33;;;;;;;19.48;4.03;;;;;;;9.26;100.00;99788.94;10396494;28;20033;-73
2023/03/24 03:35:56;;;;;;;19.10;4.03;;;;;;;9.33;100.00;99773.53;10380106;28;20062;-75
2023/03/24 03:40:59;;;;;;;19.27;4.00;;;;;;;9.32;100.00;99782.69;10377726;28;20038;-74
2023/03/24 03:45:59;;;;;;;14.23;5.13;;;;;;;9.22;100.00;99783.16;10395797;28;20061;-74
2023/03/24 03:51:00;;;;;;;20.60;5.43;;;;;;;9.23;100.00;99784.81;10379297;28;20046;-73
2023/03/24 03:56:01;;;;;;;18.63;5.70;;;;;;;9.23;100.00;99794.78;10378810;28;20052;-73
2023/03/24 04:01:02;;;;;;;31.17;5.03;;;;;;;9.19;100.00;99793.53;10379400;28;20112;-72
2023/03/24 04:06:43;;;;;;;27.77;6.47;;;;;;;9.08;100.00;99798.56;10378421;28;20053;-72
2023/03/24 04:11:49;;;;;;;13.20;4.40;;;;;;;8.98;100.00;99809.00;10317774;28;20034;-72
2023/03/24 04:16:53;;;;;;;;;;;;;;;8.78;100.00;99816.38;10345566;28;20545;-72
2023/03/24 04:21:57;;;;;;;12.73;5.25;;;;;;;8.69;100.00;99831.94;10379670;28;19921;-72
2023/03/24 04:27:05;;;;;;;32.25;6.32;;;;;;;8.54;100.00;99837.56;10378819;28;20123;-72
2023/03/24 04:32:26;;;;;;;25.63;5.43;;;;;;;8.55;100.00;99835.69;10394676;28;20100;-73
2023/03/24 04:37:36;;;;;;;18.75;6.03;;;;;;;8.51;100.00;99850.66;10395153;28;20038;-71
2023/03/24 04:42:40;;;;;;;18.13;5.45;;;;;;;8.45;100.00;99844.22;10376435;28;20031;-71
2023/03/24 04:47:45;;;;;;;29.40;6.20;;;;;;;8.45;100.00;99863.09;10377825;28;20030;-72
2023/03/24 04:52:45;;;;;;;33.97;7.38;;;;;;;8.54;100.00;99864.56;10377572;28;20100;-72
2023/03/24 04:57:45;;;;;;;24.83;6.97;;;;;;;8.67;100.00;99870.97;10376177;28;20431;-81
2023/03/24 05:02:46;;;;;;;37.58;6.90;;;;;;;8.71;100.00;99866.81;10392749;28;20061;-82
2023/03/24 05:07:48;;;;;;;21.38;7.40;;;;;;;8.74;100.00;99880.75;10377290;28;20437;-81
2023/03/24 05:12:48;;;;;;;30.10;5.45;;;;;;;8.75;100.00;99890.50;10377261;28;20033;-81
2023/03/24 05:17:50;;;;;;;20.20;7.90;;;;;;;8.79;100.00;99899.00;10393388;28;20061;-81
2023/03/24 05:22:51;;;;;;;26.30;6.63;;;;;;;8.80;100.00;99876.34;10378529;28;20129;-82
2023/03/24 05:27:51;;;;;;;15.32;5.15;;;;;;;8.93;100.00;99891.69;10379928;28;20105;-82
2023/03/24 05:32:52;;;;;;;21.15;5.03;;;;;;;9.03;100.00;99898.31;10378469;28;20140;-82
2023/03/24 05:37:52;;;;;;;22.30;5.22;;;;;;;9.08;100.00;99898.50;10392392;28;20056;-81
2023/03/24 05:42:52;;;;;;;24.85;7.13;;;;;;;9.09;100.00;99918.22;10398169;28;20045;-82
2023/03/24 05:47:53;;;;;;;14.15;5.03;;;;;;;9.11;100.00;99923.44;10378368;28;20100;-81
2023/03/24 05:52:53;;;;;;;17.63;3.70;;;;;;;9.14;100.00;99923.00;10379250;28;20543;-82
2023/03/24 05:57:54;;;;;;;22.83;6.20;;;;;;;9.19;100.00;99934.00;10378752;28;20080;-82
2023/03/24 06:02:55;;;;;;;27.30;7.05;;;;;;;9.23;100.00;99936.06;10392146;28;20034;-83
2023/03/24 06:07:57;;;;;;;11.60;5.68;;;;;;;9.26;100.00;99930.25;10376522;28;20050;-83
2023/03/24 06:12:58;;;;;;;27.25;5.82;;;;;;;9.21;100.00;99934.63;10376119;28;20529;-83
2023/03/24 06:17:59;;;;;;;16.25;5.40;;;;;;;9.25;100.00;99933.16;10375374;28;20121;-82
2023/03/24 06:23:01;;;;;;;29.10;6.80;;;;;;;9.32;100.00;99956.41;10375287;28;20090;-83
2023/03/24 06:28:05;;;;;;;18.83;5.88;;;;;;;9.32;100.00;99955.59;10373694;28;20030;-83
2023/03/24 06:33:05;;;;;;;25.80;6.28;;;;;;;9.58;100.00;99964.66;10388222;28;20029;-83
2023/03/24 06:38:06;;;;;;;23.63;5.20;;;;;;;9.70;100.00;99965.59;10374090;28;20034;-81
2023/03/24 06:43:06;;;;;;;29.20;5.32;;;;;;;9.63;100.00;99979.16;10389953;28;20109;-83
2023/03/24 06:48:07;;;;;;;20.98;4.95;;;;;;;9.91;100.00;99991.53;10374309;28;20044;-79
2023/03/24 06:53:07;;;;;;;33.42;7.13;;;;;;;10.63;100.00;99994.88;10374105;28;20046;-79
2023/03/24 06:58:08;;;;;;;11.35;6.53;;;;;;;10.94;100.00;99983.97;10376202;28;20041;-80
2023/03/24 07:03:08;;;;;;;31.75;5.95;;;;;;;10.89;100.00;100005.47;10372590;28;20073;-81
2023/03/24 07:08:09;;;;;;;14.23;6.40;;;;;;;11.15;100.00;100009.00;10374917;28;20084;-81
2023/03/24 07:13:09;;;;;;;13.30;4.75;;;;;;;11.76;100.00;100002.69;10388925;28;20061;-82
2023/03/24 07:18:10;;;;;;;11.50;5.00;;;;;;;11.99;100.00;100023.72;10371783;28;20065;-82
2023/03/24 07:23:11;;;;;;;22.02;5.03;;;;;;;11.98;100.00;100024.78;10373064;28;20065;-82
2023/03/24 07:28:11;;;;;;;13.32;4.70;;;;;;;11.89;100.00;100028.88;10373505;28;20038;-83
2023/03/24 07:33:12;;;;;;;7.60;3.15;;;;;;;12.27;100.00;100044.03;10371056;28;20452;-81
2023/03/24 07:38:13;;;;;;;14.38;4.97;;;;;;;12.34;100.00;100050.19;10371876;28;20244;-80
2023/03/24 07:43:13;;;;;;;9.35;4.30;;;;;;;12.47;100.00;100049.19;10376849;28;20527;-82
2023/03/24 07:48:14;;;;;;;13.82;4.85;;;;;;;12.81;100.00;100055.78;10396872;28;20121;-83
2023/03/24 07:53:18;;;;;;;30.70;5.55;;;;;;;13.35;100.00;100056.59;10395778;28;20454;-82
2023/03/24 07:58:19;;;;;;;14.00;4.95;;;;;;;13.54;100.00;100053.75;10379610;28;20034;-82
2023/03/24 08:03:26;;;;;;;18.50;5.30;;;;;;;13.76;100.00;100051.25;10395086;28;20462;-82
2023/03/24 08:08:27;;;;;;;10.27;3.35;;;;;;;13.49;100.00;100051.72;10379895;28;20167;-82
2023/03/24 08:13:27;;;;;;;14.57;5.10;;;;;;;13.82;100.00;100018.47;10394014;28;20076;-82
2023/03/24 08:18:27;;;;;;;12.27;3.55;;;;;;;13.84;100.00;100064.47;10377951;28;20057;-81
2023/03/24 08:23:28;;;;;;;10.20;4.72;;;;;;;14.12;100.00;100072.69;10393306;28;20045;-81
2023/03/24 08:28:28;;;;;;;8.88;4.07;;;;;;;13.44;100.00;100081.56;10377592;28;20485;-81
2023/03/24 08:33:29;;;;;;;10.77;3.63;;;;;;;13.37;100.00;100081.66;10376889;28;20041;-82
2023/03/24 08:38:30;;;;;;;26.05;4.30;;;;;;;12.61;100.00;100077.00;10378938;28;20033;-80
2023/03/24 08:43:30;;;;;;;12.27;3.85;;;;;;;12.16;100.00;100096.41;10376543;28;20120;-80
2023/03/24 08:48:31;;;;;;;15.88;5.38;;;;;;;12.13;100.00;100091.44;10392296;28;20075;-80
2023/03/24 08:53:32;;;;;;;8.82;4.40;;;;;;;12.26;100.00;100116.50;10391970;28;20048;-81
2023/03/24 08:58:32;;;;;;;10.38;4.30;;;;;;;12.22;100.00;100118.03;10377415;28;20042;-82
2023/03/24 09:03:34;;;;;;;14.65;4.35;;;;;;;12.02;100.00;100133.69;10375823;28;20129;-81
2023/03/24 09:08:35;;;;;;;13.50;4.57;;;;;;;12.77;100.00;100127.97;10377068;28;20037;-80
2023/03/24 09:13:35;;;;;;;13.57;4.70;;;;;;;14.18;100.00;100131.63;10377078;28;20466;-80
2023/03/24 09:18:36;;;;;;;14.30;4.65;;;;;;;14.78;100.00;100143.22;10391682;28;20108;-80
2023/03/24 09:23:36;;;;;;;11.60;5.15;;;;;;;14.53;100.00;100138.91;10376316;28;20485;-81
2023/03/24 09:28:37;;;;;;;6.03;3.42;;;;;;;13.65;100.00;100153.56;10378252;28;20038;-80
2023/03/24 09:33:37;;;;;;;10.43;4.15;;;;;;;14.05;100.00;100131.06;10378118;28;20064;-80
2023/03/24 09:38:38;;;;;;;15.95;4.63;;;;;;;14.25;100.00;100134.22;10375034;28;20080;-80
2023/03/24 09:43:41;;;;;;;19.73;4.43;;;;;;;14.38;100.00;100146.75;10374230;28;20378;-82
2023/03/24 09:49:00;;;;;;;15.15;3.53;;;;;;;14.86;100.00;100142.81;10373680;28;20502;-80
2023/03/24 09:54:12;;;;;;;9.15;3.30;;;;;;;15.02;100.00;100150.19;10391703;28;20442;-80
2023/03/24 09:59:17;;;;;;;22.45;3.83;;;;;;;14.35;100.00;100152.66;10374457;28;20030;-80
2023/03/24 10:04:19;;;;;;;20.75;4.25;;;;;;;14.68;100.00;100153.88;10391156;28;20421;-80
2023/03/24 10:09:30;;;;;;;17.40;4.15;;;;;;;14.73;100.00;100152.09;10378023;28;20046;-80
2023/03/24 10:15:10;;;;;;;12.45;4.70;;;;;;;14.09;100.00;100162.19;10389530;28;20026;-80
2023/03/24 10:20:24;;;;;;;12.05;3.83;;;;;;;13.22;100.00;100165.56;10373726;28;20058;-81
2023/03/24 10:25:43;;;;;;;14.20;4.00;;;;;;;13.20;100.00;100162.22;10372786;28;20033;-80
2023/03/24 10:30:43;;;;;;;8.45;3.97;;;;;;;12.98;100.00;100168.19;10373872;28;20111;-79
2023/03/24 10:35:57;;;;;;;8.60;3.63;;;;;;;13.26;100.00;100161.31;10372120;28;20079;-79
2023/03/24 10:40:57;;;;;;;19.55;4.10;;;;;;;13.41;100.00;100164.44;10388307;28;20459;-75
2023/03/24 10:45:58;;;;;;;18.73;4.80;;;;;;;13.19;100.00;100161.41;10372033;28;20030;-79
2023/03/24 10:50:58;;;;;;;14.10;4.80;;;;;;;13.22;100.00;100160.94;10388610;28;20038;-79
2023/03/24 10:55:59;;;;;;;6.68;3.03;;;;;;;13.31;100.00;100164.19;10372165;28;20053;-78
2023/03/24 11:01:20;;;;;;;22.00;4.30;;;;;;;13.06;100.00;100158.88;10388087;28;20040;-81
2023/03/24 11:06:20;;;;;;;5.95;3.05;;;;;;;14.38;100.00;100160.34;10356173;28;20065;-80
2023/03/24 11:11:31;;;;;;;9.82;3.75;;;;;;;15.90;100.00;100157.94;10372355;28;20065;-79
2023/03/24 11:16:35;;;;;;;4.75;2.78;;;;;;;16.44;100.00;100161.66;10376145;28;20038;-79
2023/03/24 11:21:36;;;;;;;12.38;3.20;;;;;;;16.91;100.00;100173.97;10396780;28;20370;-79
2023/03/24 11:26:37;;;;;;;5.55;2.50;;;;;;;16.32;100.00;100184.72;10379022;28;20038;-80
2023/03/24 11:31:38;;;;;;;8.90;4.03;;;;;;;16.41;100.00;100175.84;10362471;28;20026;-79
2023/03/24 11:36:41;;;;;;;3.42;2.45;;;;;;;14.95;100.00;100190.41;10379065;28;20413;-78
2023/03/24 11:42:03;;;;;;;22.70;3.58;;;;;;;13.98;100.00;100182.94;10364233;28;20413;-78
2023/03/24 11:47:10;;;;;;;6.05;2.83;;;;;;;14.19;100.00;100185.00;10378529;28;20044;-78
2023/03/24 11:52:24;;;;;;;9.77;3.50;;;;;;;14.56;100.00;100192.91;10380329;28;20168;-79
2023/03/24 11:57:31;;;;;;;16.52;4.03;;;;;;;14.95;100.00;100182.22;10376745;28;20428;-78
2023/03/24 12:02:50;;;;;;;;;;;;;;;15.89;100.00;100183.56;10378507;28;20422;-79
2023/03/24 12:08:21;;;;;;;19.35;3.40;;;;;;;15.36;100.00;100177.50;10377961;28;20388;-79
2023/03/24 12:13:30;;;;;;;11.07;3.72;;;;;;;16.51;100.00;100175.13;10394246;28;20022;-81
2023/03/24 12:18:52;;;;;;;8.52;3.25;;;;;;;16.88;100.00;100164.41;10378766;28;20066;-81
2023/03/24 12:24:05;;;;;;;10.77;3.22;;;;;;;16.63;100.00;100158.63;10378822;28;20091;-77
2023/03/24 12:29:32;;;;;;;4.75;3.20;;;;;;;16.06;100.00;100150.78;10376115;28;20041;-77
2023/03/24 12:34:39;;;;;;;16.92;2.83;;;;;;;15.06;100.00;100170.47;10377896;28;20214;-78
2023/03/24 12:40:09;;;;;;;8.52;3.33;;;;;;;15.20;100.00;100167.41;10377857;28;20351;-77
2023/03/24 12:45:28;;;;;;;10.40;3.50;;;;;;;15.09;100.00;100163.66;10379011;28;20172;-77
2023/03/24 12:50:55;;;;;;;13.05;3.75;;;;;;;15.65;100.00;100159.16;10393144;28;20030;-79
2023/03/24 12:56:02;;;;;;;13.07;4.50;;;;;;;15.88;100.00;100144.50;10377539;28;20034;-80
2023/03/24 13:01:06;;;;;;;10.23;3.15;;;;;;;15.80;100.00;100139.50;10375719;28;20041;-79
2023/03/24 13:06:28;;;;;;;6.03;3.78;;;;;;;16.39;100.00;100144.38;10375002;28;20034;-78
2023/03/24 13:11:34;;;;;;;10.32;2.63;;;;;;;15.63;100.00;100146.81;10375616;28;20102;-77
2023/03/24 13:16:36;;;;;;;6.00;2.78;;;;;;;15.17;100.00;100136.00;10392913;28;20087;-78
2023/03/24 13:21:37;;;;;;;4.95;1.98;;;;;;;15.38;100.00;100137.19;10374802;28;20458;-77
2023/03/24 13:27:01;;;;;;;9.73;3.00;;;;;;;16.13;100.00;100118.63;10375088;28;20034;-79
2023/03/24 13:32:07;;;;;;;4.40;2.95;;;;;;;15.79;100.00;100122.28;10391740;28;20032;-78
2023/03/24 13:37:15;;;;;;;6.63;2.70;;;;;;;15.59;100.00;100133.69;10392170;28;20088;-78
2023/03/24 13:42:32;;;;;;;10.55;3.30;;;;;;;15.08;100.00;100127.38;10377939;28;20038;-80
2023/03/24 13:48:14;;;;;;;17.33;3.65;;;;;;;15.62;100.00;100116.00;10392009;28;20025;-77
2023/03/24 13:53:15;;;;;;;11.65;3.95;;;;;;;15.65;100.00;100128.31;10370238;28;20041;-79
2023/03/24 13:58:22;;;;;;;19.65;3.55;;;;;;;15.67;100.00;100118.00;10389724;28;20105;-77
2023/03/24 14:03:45;;;;;;;9.20;2.55;;;;;;;15.52;100.00;100102.19;10389880;28;20036;-80
2023/03/24 14:08:51;;;;;;;13.20;3.05;;;;;;;15.92;100.00;100104.72;10389596;28;20069;-77
2023/03/24 14:13:52;;;;;;;7.35;3.92;;;;;;;15.62;100.00;100104.25;10374272;28;20062;-77
2023/03/24 14:19:17;;;;;;;6.22;2.97;;;;;;;15.61;100.00;100110.78;10371888;28;20402;-76
2023/03/24 14:24:24;;;;;;;6.57;3.17;;;;;;;15.57;100.00;100092.19;10373137;28;20084;-78
2023/03/24 14:29:49;;;;;;;19.10;4.00;;;;;;;15.04;100.00;100112.59;10372885;28;20062;-78
2023/03/24 14:34:59;;;;;;;12.80;4.32;;;;;;;14.87;100.00;100107.13;10367296;28;20081;-76
2023/03/24 14:40:00;;;;;;;17.13;3.47;;;;;;;14.87;100.00;100104.41;10373955;28;20395;-77
2023/03/24 14:45:09;;;;;;;6.88;3.55;;;;;;;14.80;100.00;100108.34;10373774;28;20033;-76
2023/03/24 14:50:17;;;;;;;4.57;2.70;;;;;;;14.61;100.00;100107.72;10386803;28;20033;-78
2023/03/24 14:55:18;;;;;;;9.68;3.42;;;;;;;14.59;100.00;100104.44;10355537;28;20038;-78
2023/03/24 15:00:45;;;;;;;7.35;3.35;;;;;;;14.20;100.00;100104.19;10372193;28;20033;-79
2023/03/24 15:05:46;;;;;;;19.25;3.58;;;;;;;14.00;100.00;100096.38;10387950;28;20069;-79
2023/03/24 15:10:52;;;;;;;17.23;3.53;;;;;;;13.73;100.00;100091.47;10355604;28;20491;-78
2023/03/24 15:15:53;;;;;;;16.23;2.47;;;;;;;13.41;100.00;100103.78;10388076;28;20053;-78
2023/03/24 15:20:53;;;;;;;11.70;4.43;;;;;;;13.25;100.00;100089.81;10372430;28;20060;-77
2023/03/24 15:25:54;;;;;;;13.57;3.67;;;;;;;12.96;100.00;100096.13;10372084;28;20038;-77
2023/03/24 15:30:55;;;;;;;9.82;3.13;;;;;;;12.76;100.00;100072.81;10371348;28;20375;-79
2023/03/24 15:35:57;;;;;;;7.65;3.17;;;;;;;12.61;100.00;100088.69;10387176;28;20045;-78
2023/03/24 15:41:07;;;;;;;11.52;3.05;;;;;;;12.54;100.00;100077.09;10355124;28;20125;-77
2023/03/24 15:46:22;;;;;;;5.28;3.42;;;;;;;12.41;100.00;100085.41;10371403;28;20187;-79
2023/03/24 15:52:05;;;;;;;16.80;3.60;;;;;;;12.39;100.00;100084.81;10386886;28;20041;-79
2023/03/24 15:57:20;;;;;;;7.93;3.33;;;;;;;12.18;100.00;100073.38;10370515;28;20034;-79
2023/03/24 16:02:38;;;;;;;15.52;3.47;;;;;;;12.05;100.00;100076.25;10375915;28;20034;-78
2023/03/24 16:07:39;;;;;;;8.95;4.07;;;;;;;12.09;100.00;100058.47;10379345;28;20038;-79
2023/03/24 16:12:40;;;;;;;16.75;3.30;;;;;;;12.13;100.00;100070.53;10378033;28;20443;-78
2023/03/24 16:17:40;;;;;;;7.78;3.70;;;;;;;12.23;100.00;100070.81;10394549;28;20054;-79
2023/03/24 16:22:41;;;;;;;10.48;2.85;;;;;;;12.43;100.00;100062.41;10379268;28;20072;-79
2023/03/24 16:27:42;;;;;;;9.10;3.78;;;;;;;12.54;100.00;100055.38;10394048;28;20105;-78
2023/03/24 16:32:44;;;;;;;4.72;2.10;;;;;;;12.40;100.00;100045.75;10361800;28;20026;-79
2023/03/24 16:37:48;;;;;;;8.93;2.78;;;;;;;12.47;100.00;100063.59;10376278;28;20493;-79
2023/03/24 16:42:49;;;;;;;5.72;2.55;;;;;;;12.41;100.00;100055.53;10361087;28;20116;-79
2023/03/24 16:47:51;;;;;;;5.82;2.60;;;;;;;12.11;100.00;100053.66;10378155;28;20050;-79
2023/03/24 16:52:52;;;;;;;12.05;2.35;;;;;;;12.00;100.00;100057.97;10377466;28;20042;-78
2023/03/24 16:57:52;;;;;;;7.20;2.05;;;;;;;11.83;100.00;100043.31;10379229;28;20034;-80
2023/03/24 17:02:53;;;;;;;6.38;3.17;;;;;;;11.81;100.00;100057.09;10376082;28;20038;-78
2023/03/24 17:07:54;;;;;;;14.40;2.97;;;;;;;11.76;100.00;100056.94;10392980;28;20041;-78
2023/03/24 17:12:55;;;;;;;8.55;3.60;;;;;;;11.70;100.00;100041.56;10376587;28;20117;-79
2023/03/24 17:17:56;;;;;;;4.65;3.20;;;;;;;11.70;100.00;100054.31;10374873;28;20061;-79
2023/03/24 17:22:57;;;;;;;18.30;4.07;;;;;;;11.54;100.00;100053.03;10391304;28;20076;-79
2023/03/24 17:27:57;;;;;;;16.02;3.58;;;;;;;11.34;100.00;100054.06;10391231;28;20045;-79
2023/03/24 17:32:58;;;;;;;7.45;3.10;;;;;;;11.25;100.00;100054.56;10374756;28;20042;-79
2023/03/24 17:37:59;;;;;;;6.38;3.03;;;;;;;11.04;100.00;100042.22;10375374;28;20030;-79
2023/03/24 17:43:00;;;;;;;10.38;3.22;;;;;;;10.96;100.00;100065.00;10390387;28;20029;-79
2023/03/24 17:48:00;;;;;;;3.63;1.80;;;;;;;10.76;100.00;100043.50;10374447;28;20466;-79
2023/03/24 17:53:02;;;;;;;3.20;2.35;;;;;;;10.71;100.00;100056.84;10373897;28;20552;-79
2023/03/24 17:58:02;;;;;;;8.38;3.42;;;;;;;10.55;100.00;100068.22;10373462;28;20112;-79
2023/03/24 18:03:03;;;;;;;14.85;3.53;;;;;;;10.51;100.00;100064.28;10389923;28;20042;-79
2023/03/24 18:08:04;;;;;;;7.82;3.17;;;;;;;10.42;100.00;100059.13;10390167;28;20050;-80
2023/03/24 18:13:05;;;;;;;10.32;4.35;;;;;;;10.38;100.00;100057.91;10373804;28;20454;-79
2023/03/24 18:18:06;;;;;;;12.25;2.85;;;;;;;10.39;100.00;100066.84;10390502;28;20060;-79
2023/03/24 18:23:06;;;;;;;9.45;4.78;;;;;;;10.29;100.00;100053.78;10374301;28;20366;-79
2023/03/24 18:28:08;;;;;;;14.93;2.67;;;;;;;10.29;100.00;100061.09;10373258;28;20049;-78
2023/03/24 18:33:09;;;;;;;5.10;2.58;;;;;;;10.29;100.00;100050.25;10389448;28;20049;-80
2023/03/24 18:38:10;;;;;;;6.78;3.38;;;;;;;10.15;100.00;100044.06;10388878;28;20429;-79
2023/03/24 18:43:10;;;;;;;13.77;3.42;;;;;;;10.13;100.00;100054.25;10374586;28;20060;-80
2023/03/24 18:48:12;;;;;;;7.85;2.78;;;;;;;10.10;100.00;100052.00;10390964;28;20034;-79
2023/03/24 18:53:13;;;;;;;8.48;3.00;;;;;;;10.06;100.00;100048.06;10378191;28;20073;-78
2023/03/24 18:58:15;;;;;;;13.13;4.25;;;;;;;9.97;100.00;100051.00;10392395;28;20100;-78
2023/03/24 19:03:15;;;;;;;9.95;2.63;;;;;;;9.96;100.00;100052.03;10389912;28;20030;-78
2023/03/24 19:08:16;;;;;;;6.15;2.25;;;;;;;9.99;100.00;100053.50;10391427;28;20381;-77
2023/03/24 19:13:16;;;;;;;12.90;4.22;;;;;;;9.97;100.00;100055.56;10374201;28;20038;-79
2023/03/24 19:18:18;;;;;;;11.88;4.32;;;;;;;9.88;100.00;100036.06;10371967;28;20050;-80
2023/03/24 19:23:18;;;;;;;8.25;3.28;;;;;;;9.85;100.00;100030.25;10373326;28;20049;-79
2023/03/24 19:28:23;;;;;;;10.40;2.97;;;;;;;9.88;100.00;100038.75;10388168;28;20053;-78
2023/03/24 19:33:25;;;;;;;6.13;1.90;;;;;;;9.89;100.00;100034.16;10388957;28;20041;-78
2023/03/24 19:38:26;;;;;;;16.52;3.25;;;;;;;9.93;100.00;100028.13;10375805;28;20044;-77
2023/03/24 19:43:26;;;;;;;10.35;3.88;;;;;;;9.95;100.00;100042.25;10381334;28;20042;-80
2023/03/24 19:48:27;;;;;;;12.50;3.00;;;;;;;9.93;100.00;100028.13;10396264;28;20104;-79
2023/03/24 19:53:27;;;;;;;6.80;3.55;;;;;;;9.96;100.00;100030.41;10396455;28;20121;-81
2023/03/24 19:58:28;;;;;;;7.45;2.88;;;;;;;9.90;100.00;100023.16;10396678;28;20060;-81
2023/03/24 20:03:29;;;;;;;6.28;2.30;;;;;;;9.93;100.00;100036.25;10395989;28;20067;-81
2023/03/24 20:08:29;;;;;;;5.07;2.65;;;;;;;9.81;100.00;100056.06;10379246;28;20092;-81
2023/03/24 20:13:30;;;;;;;8.82;2.92;;;;;;;9.78;100.00;100041.91;10395935;28;20057;-81
2023/03/24 20:18:30;;;;;;;4.47;2.80;;;;;;;9.77;100.00;100036.72;10396230;28;20054;-81
2023/03/24 20:23:31;;;;;;;12.75;3.53;;;;;;;9.67;100.00;100029.06;10379694;28;20071;-81
2023/03/24 20:28:32;;;;;;;9.75;3.03;;;;;;;9.65;100.00;100031.16;10378716;28;20060;-80
2023/03/24 20:33:33;;;;;;;12.10;3.63;;;;;;;9.68;100.00;100044.25;10378764;28;20046;-81
2023/03/24 20:38:33;;;;;;;9.52;2.60;;;;;;;9.73;100.00;100046.28;10378803;28;20068;-79
2023/03/24 20:43:35;;;;;;;10.82;3.35;;;;;;;9.76;100.00;100032.34;10378650;28;20056;-79
2023/03/24 20:48:35;;;;;;;6.03;3.03;;;;;;;9.71;100.00;100045.69;10392342;28;20026;-77
2023/03/24 20:53:37;;;;;;;14.18;3.47;;;;;;;9.62;100.00;100026.16;10378128;28;20099;-80
2023/03/24 20:58:37;;;;;;;7.55;2.85;;;;;;;9.55;100.00;100003.75;10360586;28;20109;-83
2023/03/24 21:03:39;;;;;;;14.77;3.25;;;;;;;9.58;100.00;100011.41;10393040;28;20030;-81
2023/03/24 21:08:40;;;;;;;9.23;3.72;;;;;;;9.50;100.00;100039.50;10377220;28;20430;-82
2023/03/24 21:13:41;;;;;;;10.57;3.72;;;;;;;9.40;100.00;100022.06;10376170;28;20088;-80
2023/03/24 21:18:42;;;;;;;15.30;2.95;;;;;;;9.34;100.00;100036.41;10359394;28;20093;-81
2023/03/24 21:23:43;;;;;;;26.20;5.20;;;;;;;9.41;100.00;100027.28;10378962;28;20148;-81
2023/03/24 21:28:44;;;;;;;13.93;4.15;;;;;;;9.35;100.00;100029.97;10376204;28;20503;-81
2023/03/24 21:33:44;;;;;;;6.75;3.50;;;;;;;9.38;100.00;100033.09;10375981;28;20085;-81
2023/03/24 21:38:48;;;;;;;8.95;2.50;;;;;;;9.45;100.00;100022.28;10391782;28;20052;-81
2023/03/24 21:43:52;;;;;;;19.00;4.03;;;;;;;9.60;100.00;100019.31;10376494;28;20033;-81
2023/03/24 21:48:54;;;;;;;11.82;3.95;;;;;;;9.76;100.00;100026.94;10390663;28;20026;-79
2023/03/24 21:53:54;;;;;;;11.93;2.35;;;;;;;9.83;100.00;100038.59;10375684;28;20045;-80
2023/03/24 21:58:55;;;;;;;12.85;3.78;;;;;;;9.89;100.00;100023.34;10375282;28;20502;-79
2023/03/24 22:03:57;;;;;;;19.05;3.80;;;;;;;9.91;100.00;100032.09;10357566;28;20054;-80
2023/03/24 22:09:05;;;;;;;11.60;3.90;;;;;;;9.92;100.00;100034.59;10376824;28;20422;-80
2023/03/24 22:14:05;;;;;;;26.83;3.53;;;;;;;9.87;100.00;100034.41;10374554;28;20056;-81
2023/03/24 22:19:06;;;;;;;19.10;3.78;;;;;;;9.85;100.00;100024.84;10389827;28;20058;-82
2023/03/24 22:24:06;;;;;;;13.07;3.33;;;;;;;9.78;100.00;100031.09;10390549;28;20363;-82
2023/03/24 22:29:07;;;;;;;7.75;2.75;;;;;;;9.71;100.00;100016.78;10375865;28;20033;-81
2023/03/24 22:34:08;;;;;;;18.20;3.47;;;;;;;9.69;100.00;100021.56;10374963;28;20481;-82
2023/03/24 22:39:08;;;;;;;12.32;4.50;;;;;;;9.66;100.00;100024.69;10372920;28;20130;-81
2023/03/24 22:44:10;;;;;;;8.18;3.42;;;;;;;9.65;100.00;100024.91;10374543;28;20046;-81
2023/03/24 22:49:10;;;;;;;13.13;4.50;;;;;;;9.65;100.00;100022.22;10389557;28;20038;-79
2023/03/24 22:54:11;;;;;;;6.70;3.25;;;;;;;9.66;100.00;100021.16;10373033;28;20604;-80
2023/03/24 22:59:11;;;;;;;13.23;3.08;;;;;;;9.63;100.00;100032.41;10373865;28;20120;-80
2023/03/24 23:04:19;;;;;;;12.82;4.65;;;;;;;9.65;100.00;100041.97;10374843;28;20466;-79